PWSweather.com
Personal Weather Stations
Station Observations
KCARIDGE3
Ridgecrest, CA 93555

Ridgecrest, CA 93555

Lat: 35.62083817, Lon: -117.6733017

Elevation: 2315

Station Type:

High Low Average
Temperature 86.2°F30.1°C 61.5°F16.4°C 72.0°F22.2°C
Dew Point 35.1°F1.7°C 25.0°F-3.9°C 30.5°F-0.8°C
Winds 34.9 mph 56.2 kmh Calm Calm 10.0 mph SW16.1 kmh SW
Wind Gusts 40.0 mph64.4 kmh -- 10.0 mph16.1 kmh
Humidity 32% 12% 22%
Pressure -338605.1 mb -338605.1 mb -
Precipitation 0.00 in0.0 mm - -
Hour Temp Dew Point Humidity Winds Wind Gusts Pressure Precip Precip Rate Daily Precip Total
12:02 AM 67.6°F19.8°C 38.3°F3.5°C 34% 13.0 mph SW20.9 kmh SW 8.9 mph14.3 kmh -338605.1 mb 0.00 in0.0 mm 0.00 in/hr0.0 mm/hr 0.00 in0.0 mm
12:07 AM 67.6°F19.8°C 38.3°F3.5°C 34% 14.1 mph SSW22.7 kmh SSW 15.0 mph24.1 kmh -338605.1 mb 0.00 in0.0 mm 0.00 in/hr0.0 mm/hr 0.00 in0.0 mm
12:12 AM 67.6°F19.8°C 38.3°F3.5°C 34% 14.1 mph SSW22.7 kmh SSW 15.0 mph24.1 kmh -338605.1 mb 0.00 in0.0 mm 0.00 in/hr0.0 mm/hr 0.00 in0.0 mm
12:17 AM 67.5°F19.7°C 38.1°F3.4°C 34% 11.0 mph SW17.7 kmh SW 10.1 mph16.3 kmh -338605.1 mb 0.00 in0.0 mm 0.00 in/hr0.0 mm/hr 0.00 in0.0 mm
12:22 AM 67.5°F19.7°C 38.8°F3.8°C 35% 12.1 mph SSW19.5 kmh SSW 11.0 mph17.7 kmh -338605.1 mb 0.00 in0.0 mm 0.00 in/hr0.0 mm/hr 0.00 in0.0 mm
12:27 AM 67.3°F19.6°C 37.9°F3.3°C 34% 14.1 mph SW22.7 kmh SW 15.0 mph24.1 kmh -338605.1 mb 0.00 in0.0 mm 0.00 in/hr0.0 mm/hr 0.00 in0.0 mm
12:32 AM 67.5°F19.7°C 38.8°F3.8°C 35% 14.1 mph SW22.7 kmh SW 14.1 mph22.7 kmh -338605.1 mb 0.00 in0.0 mm 0.00 in/hr0.0 mm/hr 0.00 in0.0 mm
12:37 AM 67.3°F19.6°C 37.9°F3.3°C 34% 14.1 mph SSW22.7 kmh SSW 13.0 mph20.9 kmh -338605.1 mb 0.00 in0.0 mm 0.00 in/hr0.0 mm/hr 0.00 in0.0 mm
12:42 AM 67.1°F19.5°C 37.8°F3.2°C 34% 15.0 mph SW24.1 kmh SW 17.9 mph28.8 kmh -338605.1 mb 0.00 in0.0 mm 0.00 in/hr0.0 mm/hr 0.00 in0.0 mm
12:47 AM 67.3°F19.6°C 36.5°F2.5°C 32% 15.0 mph SW24.1 kmh SW 10.1 mph16.3 kmh -338605.1 mb 0.00 in0.0 mm 0.00 in/hr0.0 mm/hr 0.00 in0.0 mm
12:52 AM 67.6°F19.8°C 35.1°F1.7°C 30% 15.0 mph S24.1 kmh S 11.0 mph17.7 kmh -338605.1 mb 0.00 in0.0 mm 0.00 in/hr0.0 mm/hr 0.00 in0.0 mm
12:57 AM 67.8°F19.9°C 34.3°F1.3°C 29% 14.1 mph SW22.7 kmh SW 16.1 mph25.9 kmh -338605.1 mb 0.00 in0.0 mm 0.00 in/hr0.0 mm/hr 0.00 in0.0 mm
01:02 AM 67.8°F19.9°C 34.3°F1.3°C 29% 13.0 mph SW20.9 kmh SW 19.0 mph30.6 kmh -338605.1 mb 0.00 in0.0 mm 0.00 in/hr0.0 mm/hr 0.00 in0.0 mm
01:07 AM 67.6°F19.8°C 33.4°F0.8°C 28% 13.0 mph SW20.9 kmh SW 10.1 mph16.3 kmh -338605.1 mb 0.00 in0.0 mm 0.00 in/hr0.0 mm/hr 0.00 in0.0 mm
01:12 AM 67.8°F19.9°C 31.6°F-0.2°C 26% 13.0 mph SSW20.9 kmh SSW 14.1 mph22.7 kmh -338605.1 mb 0.00 in0.0 mm 0.00 in/hr0.0 mm/hr 0.00 in0.0 mm
01:17 AM 67.8°F19.9°C 30.7°F-0.7°C 25% 13.0 mph SSW20.9 kmh SSW 11.0 mph17.7 kmh -338605.1 mb 0.00 in0.0 mm 0.00 in/hr0.0 mm/hr 0.00 in0.0 mm
01:22 AM 67.8°F19.9°C 30.7°F-0.7°C 25% 13.0 mph SW20.9 kmh SW 11.0 mph17.7 kmh -338605.1 mb 0.00 in0.0 mm 0.00 in/hr0.0 mm/hr 0.00 in0.0 mm
01:27 AM 67.6°F19.8°C 30.6°F-0.8°C 25% 13.0 mph SW20.9 kmh SW 16.1 mph25.9 kmh -338605.1 mb 0.00 in0.0 mm 0.00 in/hr0.0 mm/hr 0.00 in0.0 mm
01:32 AM 67.6°F19.8°C 29.5°F-1.4°C 24% 14.1 mph SSW22.7 kmh SSW 16.1 mph25.9 kmh -338605.1 mb 0.00 in0.0 mm 0.00 in/hr0.0 mm/hr 0.00 in0.0 mm
01:37 AM 67.5°F19.7°C 28.4°F-2.0°C 23% 15.0 mph SW24.1 kmh SW 15.0 mph24.1 kmh -338605.1 mb 0.00 in0.0 mm 0.00 in/hr0.0 mm/hr 0.00 in0.0 mm
01:42 AM 67.5°F19.7°C 27.3°F-2.6°C 22% 16.1 mph SW25.9 kmh SW 16.1 mph25.9 kmh -338605.1 mb 0.00 in0.0 mm 0.00 in/hr0.0 mm/hr 0.00 in0.0 mm
01:52 AM 67.3°F19.6°C 27.1°F-2.7°C 22% 15.0 mph SSW24.1 kmh SSW 19.9 mph32.0 kmh -338605.1 mb 0.00 in0.0 mm 0.00 in/hr0.0 mm/hr 0.00 in0.0 mm
01:57 AM 67.1°F19.5°C 27.0°F-2.8°C 22% 14.1 mph SW22.7 kmh SW 12.1 mph19.5 kmh -338605.1 mb 0.00 in0.0 mm 0.00 in/hr0.0 mm/hr 0.00 in0.0 mm
02:02 AM 66.9°F19.4°C 27.9°F-2.3°C 23% 13.0 mph SW20.9 kmh SW 14.1 mph22.7 kmh -338605.1 mb 0.00 in0.0 mm 0.00 in/hr0.0 mm/hr 0.00 in0.0 mm
02:07 AM 66.7°F19.3°C 28.8°F-1.8°C 24% 12.1 mph SW19.5 kmh SW 12.1 mph19.5 kmh -338605.1 mb 0.00 in0.0 mm 0.00 in/hr0.0 mm/hr 0.00 in0.0 mm
02:12 AM 66.6°F19.2°C 28.6°F-1.9°C 24% 13.0 mph SW20.9 kmh SW 19.0 mph30.6 kmh -338605.1 mb 0.00 in0.0 mm 0.00 in/hr0.0 mm/hr 0.00 in0.0 mm
02:17 AM 66.6°F19.2°C 27.7°F-2.4°C 23% 12.1 mph WSW19.5 kmh WSW 10.1 mph16.3 kmh -338605.1 mb 0.00 in0.0 mm 0.00 in/hr0.0 mm/hr 0.00 in0.0 mm
02:22 AM 66.6°F19.2°C 26.6°F-3.0°C 22% 12.1 mph SW19.5 kmh SW 16.1 mph25.9 kmh -338605.1 mb 0.00 in0.0 mm 0.00 in/hr0.0 mm/hr 0.00 in0.0 mm
02:27 AM 66.7°F19.3°C 26.6°F-3.0°C 22% 12.1 mph SW19.5 kmh SW 14.1 mph22.7 kmh -338605.1 mb 0.00 in0.0 mm 0.00 in/hr0.0 mm/hr 0.00 in0.0 mm
02:32 AM 66.7°F19.3°C 26.6°F-3.0°C 22% 13.0 mph WSW20.9 kmh WSW 12.1 mph19.5 kmh -338605.1 mb 0.00 in0.0 mm 0.00 in/hr0.0 mm/hr 0.00 in0.0 mm
02:37 AM 66.7°F19.3°C 26.6°F-3.0°C 22% 11.0 mph SW17.7 kmh SW 15.0 mph24.1 kmh -338605.1 mb 0.00 in0.0 mm 0.00 in/hr0.0 mm/hr 0.00 in0.0 mm
02:42 AM 66.6°F19.2°C 26.6°F-3.0°C 22% 12.1 mph SW19.5 kmh SW 17.0 mph27.4 kmh -338605.1 mb 0.00 in0.0 mm 0.00 in/hr0.0 mm/hr 0.00 in0.0 mm
02:47 AM 66.7°F19.3°C 25.5°F-3.6°C 21% 14.1 mph WSW22.7 kmh WSW 16.1 mph25.9 kmh -338605.1 mb 0.00 in0.0 mm 0.00 in/hr0.0 mm/hr 0.00 in0.0 mm
02:52 AM 66.6°F19.2°C 26.6°F-3.0°C 22% 14.1 mph WSW22.7 kmh WSW 15.0 mph24.1 kmh -338605.1 mb 0.00 in0.0 mm 0.00 in/hr0.0 mm/hr 0.00 in0.0 mm
02:57 AM 66.2°F19.0°C 26.2°F-3.2°C 22% 13.0 mph SW20.9 kmh SW 13.0 mph20.9 kmh -338605.1 mb 0.00 in0.0 mm 0.00 in/hr0.0 mm/hr 0.00 in0.0 mm
03:02 AM 66.2°F19.0°C 25.2°F-3.8°C 21% 13.0 mph SW20.9 kmh SW 10.1 mph16.3 kmh -338605.1 mb 0.00 in0.0 mm 0.00 in/hr0.0 mm/hr 0.00 in0.0 mm
03:07 AM 66.0°F18.9°C 25.0°F-3.9°C 21% 12.1 mph SSW19.5 kmh SSW 8.9 mph14.3 kmh -338605.1 mb 0.00 in0.0 mm 0.00 in/hr0.0 mm/hr 0.00 in0.0 mm
03:12 AM 65.8°F18.8°C 25.9°F-3.4°C 22% 10.1 mph SW16.3 kmh SW 8.1 mph13.0 kmh -338605.1 mb 0.00 in0.0 mm 0.00 in/hr0.0 mm/hr 0.00 in0.0 mm
03:17 AM 65.7°F18.7°C 25.7°F-3.5°C 22% 10.1 mph SW16.3 kmh SW 10.1 mph16.3 kmh -338605.1 mb 0.00 in0.0 mm 0.00 in/hr0.0 mm/hr 0.00 in0.0 mm
03:22 AM 65.5°F18.6°C 26.8°F-2.9°C 23% 10.1 mph WSW16.3 kmh WSW 10.1 mph16.3 kmh -338605.1 mb 0.00 in0.0 mm 0.00 in/hr0.0 mm/hr 0.00 in0.0 mm
03:27 AM 65.3°F18.5°C 26.6°F-3.0°C 23% 10.1 mph WSW16.3 kmh WSW 6.9 mph11.1 kmh -338605.1 mb 0.00 in0.0 mm 0.00 in/hr0.0 mm/hr 0.00 in0.0 mm
03:32 AM 65.1°F18.4°C 27.5°F-2.5°C 24% 8.9 mph SW14.3 kmh SW 8.9 mph14.3 kmh -338605.1 mb 0.00 in0.0 mm 0.00 in/hr0.0 mm/hr 0.00 in0.0 mm
03:37 AM 65.3°F18.5°C 27.5°F-2.5°C 24% 10.1 mph SW16.3 kmh SW 8.9 mph14.3 kmh -338605.1 mb 0.00 in0.0 mm 0.00 in/hr0.0 mm/hr 0.00 in0.0 mm
03:42 AM 65.1°F18.4°C 27.5°F-2.5°C 24% 8.9 mph SW14.3 kmh SW 8.9 mph14.3 kmh -338605.1 mb 0.00 in0.0 mm 0.00 in/hr0.0 mm/hr 0.00 in0.0 mm
03:47 AM 65.3°F18.5°C 27.5°F-2.5°C 24% 10.1 mph SW16.3 kmh SW 15.0 mph24.1 kmh -338605.1 mb 0.00 in0.0 mm 0.00 in/hr0.0 mm/hr 0.00 in0.0 mm
03:52 AM 64.8°F18.2°C 29.1°F-1.6°C 26% 10.1 mph WSW16.3 kmh WSW 8.9 mph14.3 kmh -338605.1 mb 0.00 in0.0 mm 0.00 in/hr0.0 mm/hr 0.00 in0.0 mm
03:57 AM 64.8°F18.2°C 29.1°F-1.6°C 26% 11.0 mph WSW17.7 kmh WSW 10.1 mph16.3 kmh -338605.1 mb 0.00 in0.0 mm 0.00 in/hr0.0 mm/hr 0.00 in0.0 mm
04:02 AM 64.6°F18.1°C 28.0°F-2.2°C 25% 10.1 mph WSW16.3 kmh WSW 6.9 mph11.1 kmh -338605.1 mb 0.00 in0.0 mm 0.00 in/hr0.0 mm/hr 0.00 in0.0 mm
04:07 AM 64.6°F18.1°C 27.0°F-2.8°C 24% 8.1 mph WSW13.0 kmh WSW 6.0 mph9.7 kmh -338605.1 mb 0.00 in0.0 mm 0.00 in/hr0.0 mm/hr 0.00 in0.0 mm
04:12 AM 64.6°F18.1°C 27.0°F-2.8°C 24% 6.0 mph SW9.7 kmh SW 6.9 mph11.1 kmh -338605.1 mb 0.00 in0.0 mm 0.00 in/hr0.0 mm/hr 0.00 in0.0 mm
04:17 AM 64.8°F18.2°C 27.1°F-2.7°C 24% 6.0 mph SW9.7 kmh SW 8.1 mph13.0 kmh -338605.1 mb 0.00 in0.0 mm 0.00 in/hr0.0 mm/hr 0.00 in0.0 mm
04:22 AM 64.6°F18.1°C 28.0°F-2.2°C 25% 8.1 mph SW13.0 kmh SW 8.1 mph13.0 kmh -338605.1 mb 0.00 in0.0 mm 0.00 in/hr0.0 mm/hr 0.00 in0.0 mm
04:27 AM 64.6°F18.1°C 28.0°F-2.2°C 25% 8.9 mph SW14.3 kmh SW 10.1 mph16.3 kmh -338605.1 mb 0.00 in0.0 mm 0.00 in/hr0.0 mm/hr 0.00 in0.0 mm
04:32 AM 64.4°F18.0°C 28.8°F-1.8°C 26% 11.0 mph SW17.7 kmh SW 8.1 mph13.0 kmh -338605.1 mb 0.00 in0.0 mm 0.00 in/hr0.0 mm/hr 0.00 in0.0 mm
04:37 AM 64.2°F17.9°C 28.6°F-1.9°C 26% 11.0 mph SW17.7 kmh SW 8.9 mph14.3 kmh -338605.1 mb 0.00 in0.0 mm 0.00 in/hr0.0 mm/hr 0.00 in0.0 mm
04:42 AM 64.2°F17.9°C 29.5°F-1.4°C 27% 11.0 mph SW17.7 kmh SW 10.1 mph16.3 kmh -338605.1 mb 0.00 in0.0 mm 0.00 in/hr0.0 mm/hr 0.00 in0.0 mm
04:47 AM 64.2°F17.9°C 29.5°F-1.4°C 27% 10.1 mph S16.3 kmh S 12.1 mph19.5 kmh -338605.1 mb 0.00 in0.0 mm 0.00 in/hr0.0 mm/hr 0.00 in0.0 mm
04:52 AM 64.2°F17.9°C 30.4°F-0.9°C 28% 10.1 mph SW16.3 kmh SW 13.0 mph20.9 kmh -338605.1 mb 0.00 in0.0 mm 0.00 in/hr0.0 mm/hr 0.00 in0.0 mm
04:57 AM 64.0°F17.8°C 30.2°F-1.0°C 28% 11.0 mph WSW17.7 kmh WSW 12.1 mph19.5 kmh -338605.1 mb 0.00 in0.0 mm 0.00 in/hr0.0 mm/hr 0.00 in0.0 mm
05:02 AM 64.0°F17.8°C 28.4°F-2.0°C 26% 10.1 mph SSW16.3 kmh SSW 13.0 mph20.9 kmh -338605.1 mb 0.00 in0.0 mm 0.00 in/hr0.0 mm/hr 0.00 in0.0 mm
05:07 AM 63.9°F17.7°C 30.2°F-1.0°C 28% 10.1 mph SW16.3 kmh SW 12.1 mph19.5 kmh -338605.1 mb 0.00 in0.0 mm 0.00 in/hr0.0 mm/hr 0.00 in0.0 mm
05:12 AM 63.7°F17.6°C 30.0°F-1.1°C 28% 11.0 mph WSW17.7 kmh WSW 6.9 mph11.1 kmh -338605.1 mb 0.00 in0.0 mm 0.00 in/hr0.0 mm/hr 0.00 in0.0 mm
05:17 AM 63.5°F17.5°C 29.8°F-1.2°C 28% 8.9 mph SW14.3 kmh SW 8.9 mph14.3 kmh -338605.1 mb 0.00 in0.0 mm 0.00 in/hr0.0 mm/hr 0.00 in0.0 mm
05:22 AM 63.7°F17.6°C 30.0°F-1.1°C 28% 8.1 mph SW13.0 kmh SW 10.1 mph16.3 kmh -338605.1 mb 0.00 in0.0 mm 0.00 in/hr0.0 mm/hr 0.00 in0.0 mm
05:27 AM 63.7°F17.6°C 30.0°F-1.1°C 28% 6.9 mph SW11.1 kmh SW 10.1 mph16.3 kmh -338605.1 mb 0.00 in0.0 mm 0.00 in/hr0.0 mm/hr 0.00 in0.0 mm
05:32 AM 63.1°F17.3°C 30.4°F-0.9°C 29% 8.1 mph WSW13.0 kmh WSW 11.0 mph17.7 kmh -338605.1 mb 0.00 in0.0 mm 0.00 in/hr0.0 mm/hr 0.00 in0.0 mm
05:37 AM 63.0°F17.2°C 30.2°F-1.0°C 29% 8.9 mph WSW14.3 kmh WSW 8.9 mph14.3 kmh -338605.1 mb 0.00 in0.0 mm 0.00 in/hr0.0 mm/hr 0.00 in0.0 mm
05:42 AM 62.8°F17.1°C 30.0°F-1.1°C 29% 8.9 mph WSW14.3 kmh WSW 6.0 mph9.7 kmh -338605.1 mb 0.00 in0.0 mm 0.00 in/hr0.0 mm/hr 0.00 in0.0 mm
05:47 AM 62.8°F17.1°C 30.0°F-1.1°C 29% 6.9 mph SW11.1 kmh SW 6.9 mph11.1 kmh -338605.1 mb 0.00 in0.0 mm 0.00 in/hr0.0 mm/hr 0.00 in0.0 mm
05:52 AM 62.6°F17.0°C 29.8°F-1.2°C 29% 6.9 mph WSW11.1 kmh WSW 6.0 mph9.7 kmh -338605.1 mb 0.00 in0.0 mm 0.00 in/hr0.0 mm/hr 0.00 in0.0 mm
05:57 AM 62.4°F16.9°C 29.7°F-1.3°C 29% 6.0 mph WSW9.7 kmh WSW 4.9 mph7.9 kmh -338605.1 mb 0.00 in0.0 mm 0.00 in/hr0.0 mm/hr 0.00 in0.0 mm
06:02 AM 62.6°F17.0°C 29.1°F-1.6°C 28% 4.9 mph W7.9 kmh W 6.0 mph9.7 kmh -338605.1 mb 0.00 in0.0 mm 0.00 in/hr0.0 mm/hr 0.00 in0.0 mm
06:07 AM 62.2°F16.8°C 28.8°F-1.8°C 28% 4.9 mph W7.9 kmh W 2.9 mph4.7 kmh -338605.1 mb 0.00 in0.0 mm 0.00 in/hr0.0 mm/hr 0.00 in0.0 mm
06:12 AM 62.2°F16.8°C 28.8°F-1.8°C 28% 4.0 mph W6.4 kmh W 4.0 mph6.4 kmh -338605.1 mb 0.00 in0.0 mm 0.00 in/hr0.0 mm/hr 0.00 in0.0 mm
06:17 AM 62.2°F16.8°C 29.7°F-1.3°C 29% 4.0 mph WSW6.4 kmh WSW 6.0 mph9.7 kmh -338605.1 mb 0.00 in0.0 mm 0.00 in/hr0.0 mm/hr 0.00 in0.0 mm
06:22 AM 62.1°F16.7°C 29.5°F-1.4°C 29% 4.9 mph WSW7.9 kmh WSW 4.9 mph7.9 kmh -338605.1 mb 0.00 in0.0 mm 0.00 in/hr0.0 mm/hr 0.00 in0.0 mm
06:27 AM 61.7°F16.5°C 29.1°F-1.6°C 29% 4.9 mph WSW7.9 kmh WSW 6.0 mph9.7 kmh -338605.1 mb 0.00 in0.0 mm 0.00 in/hr0.0 mm/hr 0.00 in0.0 mm
06:32 AM 61.5°F16.4°C 28.9°F-1.7°C 29% 4.9 mph WSW7.9 kmh WSW 2.9 mph4.7 kmh -338605.1 mb 0.00 in0.0 mm 0.00 in/hr0.0 mm/hr 0.00 in0.0 mm
06:37 AM 62.2°F16.8°C 30.4°F-0.9°C 30% 2.9 mph WSW4.7 kmh WSW 0.9 mph1.4 kmh -338605.1 mb 0.00 in0.0 mm 0.00 in/hr0.0 mm/hr 0.00 in0.0 mm
06:42 AM 62.4°F16.9°C 30.6°F-0.8°C 30% 2.0 mph WSW3.2 kmh WSW 2.0 mph3.2 kmh -338605.1 mb 0.00 in0.0 mm 0.00 in/hr0.0 mm/hr 0.00 in0.0 mm
06:47 AM 63.3°F17.4°C 30.6°F-0.8°C 29% 4.0 mph SW6.4 kmh SW 6.9 mph11.1 kmh -338605.1 mb 0.00 in0.0 mm 0.00 in/hr0.0 mm/hr 0.00 in0.0 mm
06:52 AM 64.0°F17.8°C 29.3°F-1.5°C 27% 4.0 mph SSW6.4 kmh SSW -- -338605.1 mb 0.00 in0.0 mm 0.00 in/hr0.0 mm/hr 0.00 in0.0 mm
06:57 AM 64.6°F18.1°C 28.0°F-2.2°C 25% 4.0 mph SW6.4 kmh SW 4.0 mph6.4 kmh -338605.1 mb 0.00 in0.0 mm 0.00 in/hr0.0 mm/hr 0.00 in0.0 mm
07:02 AM 64.8°F18.2°C 28.0°F-2.2°C 25% 4.0 mph S6.4 kmh S 2.9 mph4.7 kmh -338605.1 mb 0.00 in0.0 mm 0.00 in/hr0.0 mm/hr 0.00 in0.0 mm
07:07 AM 64.4°F18.0°C 27.9°F-2.3°C 25% 2.9 mph SW4.7 kmh SW 4.0 mph6.4 kmh -338605.1 mb 0.00 in0.0 mm 0.00 in/hr0.0 mm/hr 0.00 in0.0 mm
07:12 AM 64.2°F17.9°C 28.6°F-1.9°C 26% 2.9 mph W4.7 kmh W 4.9 mph7.9 kmh -338605.1 mb 0.00 in0.0 mm 0.00 in/hr0.0 mm/hr 0.00 in0.0 mm
07:17 AM 64.2°F17.9°C 32.2°F0.1°C 30% 4.0 mph NE6.4 kmh NE -- -338605.1 mb 0.00 in0.0 mm 0.00 in/hr0.0 mm/hr 0.00 in0.0 mm
07:22 AM 64.0°F17.8°C 32.7°F0.4°C 31% 2.9 mph NE4.7 kmh NE 2.9 mph4.7 kmh -338605.1 mb 0.00 in0.0 mm 0.00 in/hr0.0 mm/hr 0.00 in0.0 mm
07:27 AM 64.0°F17.8°C 32.7°F0.4°C 31% 2.0 mph NE3.2 kmh NE 2.0 mph3.2 kmh -338605.1 mb 0.00 in0.0 mm 0.00 in/hr0.0 mm/hr 0.00 in0.0 mm
07:32 AM 64.0°F17.8°C 33.6°F0.9°C 32% 2.0 mph NE3.2 kmh NE 2.0 mph3.2 kmh -338605.1 mb 0.00 in0.0 mm 0.00 in/hr0.0 mm/hr 0.00 in0.0 mm
07:37 AM 64.2°F17.9°C 33.8°F1.0°C 32% 2.9 mph E4.7 kmh E 4.0 mph6.4 kmh -338605.1 mb 0.00 in0.0 mm 0.00 in/hr0.0 mm/hr 0.00 in0.0 mm
07:42 AM 64.0°F17.8°C 33.6°F0.9°C 32% 2.9 mph ENE4.7 kmh ENE 2.9 mph4.7 kmh -338605.1 mb 0.00 in0.0 mm 0.00 in/hr0.0 mm/hr 0.00 in0.0 mm
07:47 AM 64.4°F18.0°C 33.1°F0.6°C 31% 2.9 mph ENE4.7 kmh ENE 0.9 mph1.4 kmh -338605.1 mb 0.00 in0.0 mm 0.00 in/hr0.0 mm/hr 0.00 in0.0 mm
07:52 AM 64.9°F18.3°C 32.7°F0.4°C 30% 2.9 mph NE4.7 kmh NE 0.9 mph1.4 kmh -338605.1 mb 0.00 in0.0 mm 0.00 in/hr0.0 mm/hr 0.00 in0.0 mm
07:57 AM 65.7°F18.7°C 32.5°F0.3°C 29% 2.0 mph NE3.2 kmh NE 2.0 mph3.2 kmh -338605.1 mb 0.00 in0.0 mm 0.00 in/hr0.0 mm/hr 0.00 in0.0 mm
08:02 AM 65.8°F18.8°C 31.8°F-0.1°C 28% 0.9 mph NE1.4 kmh NE -- -338605.1 mb 0.00 in0.0 mm 0.00 in/hr0.0 mm/hr 0.00 in0.0 mm
08:07 AM 66.0°F18.9°C 32.0°F0.0°C 28% Calm Calm 2.0 mph3.2 kmh -338605.1 mb 0.00 in0.0 mm 0.00 in/hr0.0 mm/hr 0.00 in0.0 mm
08:12 AM 66.0°F18.9°C 32.0°F0.0°C 28% 0.9 mph NE1.4 kmh NE -- -338605.1 mb 0.00 in0.0 mm 0.00 in/hr0.0 mm/hr 0.00 in0.0 mm
08:17 AM 66.9°F19.4°C 33.6°F0.9°C 29% 2.0 mph NE3.2 kmh NE 2.9 mph4.7 kmh -338605.1 mb 0.00 in0.0 mm 0.00 in/hr0.0 mm/hr 0.00 in0.0 mm
08:22 AM 67.6°F19.8°C 33.4°F0.8°C 28% 2.9 mph ENE4.7 kmh ENE 2.9 mph4.7 kmh -338605.1 mb 0.00 in0.0 mm 0.00 in/hr0.0 mm/hr 0.00 in0.0 mm
08:27 AM 67.8°F19.9°C 34.3°F1.3°C 29% 4.9 mph NE7.9 kmh NE 6.9 mph11.1 kmh -338605.1 mb 0.00 in0.0 mm 0.00 in/hr0.0 mm/hr 0.00 in0.0 mm
08:32 AM 68.2°F20.1°C 33.8°F1.0°C 28% 4.9 mph ESE7.9 kmh ESE 4.0 mph6.4 kmh -338605.1 mb 0.00 in0.0 mm 0.00 in/hr0.0 mm/hr 0.00 in0.0 mm
08:37 AM 68.5°F20.3°C 33.3°F0.7°C 27% 2.9 mph ESE4.7 kmh ESE 2.9 mph4.7 kmh -338605.1 mb 0.00 in0.0 mm 0.00 in/hr0.0 mm/hr 0.00 in0.0 mm
08:42 AM 68.4°F20.2°C 31.1°F-0.5°C 25% 2.0 mph SE3.2 kmh SE -- -338605.1 mb 0.00 in0.0 mm 0.00 in/hr0.0 mm/hr 0.00 in0.0 mm
08:47 AM 68.5°F20.3°C 32.4°F0.2°C 26% 0.9 mph NW1.4 kmh NW 2.0 mph3.2 kmh -338605.1 mb 0.00 in0.0 mm 0.00 in/hr0.0 mm/hr 0.00 in0.0 mm
08:52 AM 68.5°F20.3°C 32.4°F0.2°C 26% 2.0 mph NNW3.2 kmh NNW 2.0 mph3.2 kmh -338605.1 mb 0.00 in0.0 mm 0.00 in/hr0.0 mm/hr 0.00 in0.0 mm
08:57 AM 68.7°F20.4°C 33.4°F0.8°C 27% 2.9 mph WSW4.7 kmh WSW 4.9 mph7.9 kmh -338605.1 mb 0.00 in0.0 mm 0.00 in/hr0.0 mm/hr 0.00 in0.0 mm
09:02 AM 68.5°F20.3°C 31.3°F-0.4°C 25% 0.9 mph WSW1.4 kmh WSW -- -338605.1 mb 0.00 in0.0 mm 0.00 in/hr0.0 mm/hr 0.00 in0.0 mm
09:07 AM 68.9°F20.5°C 32.5°F0.3°C 26% 0.9 mph W1.4 kmh W 4.0 mph6.4 kmh -338605.1 mb 0.00 in0.0 mm 0.00 in/hr0.0 mm/hr 0.00 in0.0 mm
09:12 AM 69.1°F20.6°C 31.8°F-0.1°C 25% 2.0 mph NW3.2 kmh NW -- -338605.1 mb 0.00 in0.0 mm 0.00 in/hr0.0 mm/hr 0.00 in0.0 mm
09:17 AM 69.6°F20.9°C 32.2°F0.1°C 25% 2.0 mph NW3.2 kmh NW 0.9 mph1.4 kmh -338605.1 mb 0.00 in0.0 mm 0.00 in/hr0.0 mm/hr 0.00 in0.0 mm
09:22 AM 69.6°F20.9°C 31.3°F-0.4°C 24% 2.0 mph WNW3.2 kmh WNW 0.9 mph1.4 kmh -338605.1 mb 0.00 in0.0 mm 0.00 in/hr0.0 mm/hr 0.00 in0.0 mm
09:27 AM 69.8°F21.0°C 32.4°F0.2°C 25% 2.0 mph WNW3.2 kmh WNW -- -338605.1 mb 0.00 in0.0 mm 0.00 in/hr0.0 mm/hr 0.00 in0.0 mm
09:32 AM 70.2°F21.2°C 31.6°F-0.2°C 24% 2.0 mph WNW3.2 kmh WNW 6.0 mph9.7 kmh -338605.1 mb 0.00 in0.0 mm 0.00 in/hr0.0 mm/hr 0.00 in0.0 mm
09:37 AM 70.9°F21.6°C 32.4°F0.2°C 24% 4.0 mph W6.4 kmh W 4.9 mph7.9 kmh -338605.1 mb 0.00 in0.0 mm 0.00 in/hr0.0 mm/hr 0.00 in0.0 mm
09:42 AM 71.4°F21.9°C 32.7°F0.4°C 24% 4.9 mph WSW7.9 kmh WSW 6.0 mph9.7 kmh -338605.1 mb 0.00 in0.0 mm 0.00 in/hr0.0 mm/hr 0.00 in0.0 mm
09:47 AM 72.0°F22.2°C 33.3°F0.7°C 24% 4.0 mph SW6.4 kmh SW 6.9 mph11.1 kmh -338605.1 mb 0.00 in0.0 mm 0.00 in/hr0.0 mm/hr 0.00 in0.0 mm
09:52 AM 73.2°F22.9°C 30.9°F-0.6°C 21% 6.0 mph SE9.7 kmh SE 4.0 mph6.4 kmh -338605.1 mb 0.00 in0.0 mm 0.00 in/hr0.0 mm/hr 0.00 in0.0 mm
09:57 AM 73.2°F22.9°C 29.7°F-1.3°C 20% 8.1 mph SSW13.0 kmh SSW 4.0 mph6.4 kmh -338605.1 mb 0.00 in0.0 mm 0.00 in/hr0.0 mm/hr 0.00 in0.0 mm
10:02 AM 72.9°F22.7°C 30.6°F-0.8°C 21% 6.0 mph SW9.7 kmh SW 0.9 mph1.4 kmh -338605.1 mb 0.00 in0.0 mm 0.00 in/hr0.0 mm/hr 0.00 in0.0 mm
10:07 AM 71.8°F22.1°C 28.6°F-1.9°C 20% 2.0 mph SW3.2 kmh SW -- -338605.1 mb 0.00 in0.0 mm 0.00 in/hr0.0 mm/hr 0.00 in0.0 mm
10:12 AM 71.6°F22.0°C 29.7°F-1.3°C 21% 2.0 mph WNW3.2 kmh WNW 4.0 mph6.4 kmh -338605.1 mb 0.00 in0.0 mm 0.00 in/hr0.0 mm/hr 0.00 in0.0 mm
10:17 AM 71.8°F22.1°C 29.7°F-1.3°C 21% 2.9 mph WNW4.7 kmh WNW -- -338605.1 mb 0.00 in0.0 mm 0.00 in/hr0.0 mm/hr 0.00 in0.0 mm
10:22 AM 72.7°F22.6°C 29.3°F-1.5°C 20% 2.0 mph SW3.2 kmh SW -- -338605.1 mb 0.00 in0.0 mm 0.00 in/hr0.0 mm/hr 0.00 in0.0 mm
10:27 AM 72.9°F22.7°C 30.6°F-0.8°C 21% 0.9 mph SW1.4 kmh SW 6.9 mph11.1 kmh -338605.1 mb 0.00 in0.0 mm 0.00 in/hr0.0 mm/hr 0.00 in0.0 mm
10:32 AM 73.0°F22.8°C 30.7°F-0.7°C 21% 2.0 mph S3.2 kmh S 8.9 mph14.3 kmh -338605.1 mb 0.00 in0.0 mm 0.00 in/hr0.0 mm/hr 0.00 in0.0 mm
10:37 AM 73.9°F23.3°C 31.5°F-0.3°C 21% 4.9 mph SSE7.9 kmh SSE 6.9 mph11.1 kmh -338605.1 mb 0.00 in0.0 mm 0.00 in/hr0.0 mm/hr 0.00 in0.0 mm
10:42 AM 74.5°F23.6°C 32.0°F0.0°C 21% 6.0 mph S9.7 kmh S 6.0 mph9.7 kmh -338605.1 mb 0.00 in0.0 mm 0.00 in/hr0.0 mm/hr 0.00 in0.0 mm
10:47 AM 74.7°F23.7°C 32.2°F0.1°C 21% 4.9 mph S7.9 kmh S 2.9 mph4.7 kmh -338605.1 mb 0.00 in0.0 mm 0.00 in/hr0.0 mm/hr 0.00 in0.0 mm
10:52 AM 74.7°F23.7°C 30.9°F-0.6°C 20% 4.0 mph SSW6.4 kmh SSW 4.0 mph6.4 kmh -338605.1 mb 0.00 in0.0 mm 0.00 in/hr0.0 mm/hr 0.00 in0.0 mm
10:57 AM 74.8°F23.8°C 31.1°F-0.5°C 20% 2.9 mph SW4.7 kmh SW -- -338605.1 mb 0.00 in0.0 mm 0.00 in/hr0.0 mm/hr 0.00 in0.0 mm
11:07 AM 76.5°F24.7°C 31.1°F-0.5°C 19% 2.9 mph W4.7 kmh W 8.1 mph13.0 kmh -338605.1 mb 0.00 in0.0 mm 0.00 in/hr0.0 mm/hr 0.00 in0.0 mm
11:12 AM 75.7°F24.3°C 31.8°F-0.1°C 20% 4.9 mph W7.9 kmh W -- -338605.1 mb 0.00 in0.0 mm 0.00 in/hr0.0 mm/hr 0.00 in0.0 mm
11:17 AM 76.1°F24.5°C 30.9°F-0.6°C 19% 4.0 mph N6.4 kmh N 0.9 mph1.4 kmh -338605.1 mb 0.00 in0.0 mm 0.00 in/hr0.0 mm/hr 0.00 in0.0 mm
11:22 AM 76.8°F24.9°C 31.5°F-0.3°C 19% 2.9 mph WSW4.7 kmh WSW 2.0 mph3.2 kmh -338605.1 mb 0.00 in0.0 mm 0.00 in/hr0.0 mm/hr 0.00 in0.0 mm
11:27 AM 77.4°F25.2°C 30.6°F-0.8°C 18% 0.9 mph WSW1.4 kmh WSW -- -338605.1 mb 0.00 in0.0 mm 0.00 in/hr0.0 mm/hr 0.00 in0.0 mm
11:32 AM 76.6°F24.8°C 31.3°F-0.4°C 19% 2.0 mph NW3.2 kmh NW 6.0 mph9.7 kmh -338605.1 mb 0.00 in0.0 mm 0.00 in/hr0.0 mm/hr 0.00 in0.0 mm
11:37 AM 76.5°F24.7°C 31.1°F-0.5°C 19% 2.9 mph NNW4.7 kmh NNW 2.9 mph4.7 kmh -338605.1 mb 0.00 in0.0 mm 0.00 in/hr0.0 mm/hr 0.00 in0.0 mm
11:42 AM 76.6°F24.8°C 31.3°F-0.4°C 19% 2.9 mph NW4.7 kmh NW 6.0 mph9.7 kmh -338605.1 mb 0.00 in0.0 mm 0.00 in/hr0.0 mm/hr 0.00 in0.0 mm
11:47 AM 77.2°F25.1°C 30.4°F-0.9°C 18% 2.9 mph NW4.7 kmh NW 0.9 mph1.4 kmh -338605.1 mb 0.00 in0.0 mm 0.00 in/hr0.0 mm/hr 0.00 in0.0 mm
11:52 AM 79.0°F26.1°C 31.8°F-0.1°C 18% 2.0 mph NW3.2 kmh NW 6.0 mph9.7 kmh -338605.1 mb 0.00 in0.0 mm 0.00 in/hr0.0 mm/hr 0.00 in0.0 mm
11:57 AM 77.2°F25.1°C 30.4°F-0.9°C 18% 2.9 mph N4.7 kmh N 2.9 mph4.7 kmh -338605.1 mb 0.00 in0.0 mm 0.00 in/hr0.0 mm/hr 0.00 in0.0 mm
12:02 PM 79.0°F26.1°C 31.8°F-0.1°C 18% 4.0 mph WSW6.4 kmh WSW -- -338605.1 mb 0.00 in0.0 mm 0.00 in/hr0.0 mm/hr 0.00 in0.0 mm
12:07 PM 78.6°F25.9°C 32.9°F0.5°C 19% 2.9 mph WNW4.7 kmh WNW 2.9 mph4.7 kmh -338605.1 mb 0.00 in0.0 mm 0.00 in/hr0.0 mm/hr 0.00 in0.0 mm
12:12 PM 79.5°F26.4°C 30.9°F-0.6°C 17% 2.0 mph NW3.2 kmh NW 4.9 mph7.9 kmh -338605.1 mb 0.00 in0.0 mm 0.00 in/hr0.0 mm/hr 0.00 in0.0 mm
12:17 PM 81.0°F27.2°C 30.6°F-0.8°C 16% 6.0 mph W9.7 kmh W 8.1 mph13.0 kmh -338605.1 mb 0.00 in0.0 mm 0.00 in/hr0.0 mm/hr 0.00 in0.0 mm
12:22 PM 82.0°F27.8°C 31.5°F-0.3°C 16% 8.1 mph WSW13.0 kmh WSW 4.9 mph7.9 kmh -338605.1 mb 0.00 in0.0 mm 0.00 in/hr0.0 mm/hr 0.00 in0.0 mm
12:27 PM 82.9°F28.3°C 32.2°F0.1°C 16% 6.0 mph NW9.7 kmh NW 8.1 mph13.0 kmh -338605.1 mb 0.00 in0.0 mm 0.00 in/hr0.0 mm/hr 0.00 in0.0 mm
12:32 PM 81.1°F27.3°C 30.7°F-0.7°C 16% 4.9 mph N7.9 kmh N 2.9 mph4.7 kmh -338605.1 mb 0.00 in0.0 mm 0.00 in/hr0.0 mm/hr 0.00 in0.0 mm
12:37 PM 80.8°F27.1°C 30.4°F-0.9°C 16% 4.0 mph WNW6.4 kmh WNW 6.0 mph9.7 kmh -338605.1 mb 0.00 in0.0 mm 0.00 in/hr0.0 mm/hr 0.00 in0.0 mm
12:42 PM 82.2°F27.9°C 31.6°F-0.2°C 16% 4.0 mph WSW6.4 kmh WSW -- -338605.1 mb 0.00 in0.0 mm 0.00 in/hr0.0 mm/hr 0.00 in0.0 mm
12:47 PM 83.1°F28.4°C 30.7°F-0.7°C 15% 6.0 mph S9.7 kmh S 10.1 mph16.3 kmh -338605.1 mb 0.00 in0.0 mm 0.00 in/hr0.0 mm/hr 0.00 in0.0 mm
12:52 PM 84.7°F29.3°C 32.0°F0.0°C 15% 8.1 mph WSW13.0 kmh WSW 14.1 mph22.7 kmh -338605.1 mb 0.00 in0.0 mm 0.00 in/hr0.0 mm/hr 0.00 in0.0 mm
12:57 PM 84.9°F29.4°C 30.4°F-0.9°C 14% 8.9 mph WSW14.3 kmh WSW 6.0 mph9.7 kmh -338605.1 mb 0.00 in0.0 mm 0.00 in/hr0.0 mm/hr 0.00 in0.0 mm
01:02 PM 84.9°F29.4°C 28.6°F-1.9°C 13% 12.1 mph WSW19.5 kmh WSW 11.0 mph17.7 kmh -338605.1 mb 0.00 in0.0 mm 0.00 in/hr0.0 mm/hr 0.00 in0.0 mm
01:07 PM 84.9°F29.4°C 30.4°F-0.9°C 14% 16.1 mph W25.9 kmh W 13.0 mph20.9 kmh -338605.1 mb 0.00 in0.0 mm 0.00 in/hr0.0 mm/hr 0.00 in0.0 mm
01:12 PM 85.3°F29.6°C 28.9°F-1.7°C 13% 15.0 mph W24.1 kmh W 12.1 mph19.5 kmh -338605.1 mb 0.00 in0.0 mm 0.00 in/hr0.0 mm/hr 0.00 in0.0 mm
01:17 PM 85.5°F29.7°C 28.9°F-1.7°C 13% 15.0 mph WSW24.1 kmh WSW 17.0 mph27.4 kmh -338605.1 mb 0.00 in0.0 mm 0.00 in/hr0.0 mm/hr 0.00 in0.0 mm
01:22 PM 85.5°F29.7°C 27.1°F-2.7°C 12% 16.1 mph WSW25.9 kmh WSW 13.0 mph20.9 kmh -338605.1 mb 0.00 in0.0 mm 0.00 in/hr0.0 mm/hr 0.00 in0.0 mm
01:27 PM 86.2°F30.1°C 27.7°F-2.4°C 12% 17.0 mph WSW27.4 kmh WSW 19.0 mph30.6 kmh -338605.1 mb 0.00 in0.0 mm 0.00 in/hr0.0 mm/hr 0.00 in0.0 mm
01:32 PM 85.5°F29.7°C 28.9°F-1.7°C 13% 19.9 mph SW32.0 kmh SW 21.0 mph33.8 kmh -338605.1 mb 0.00 in0.0 mm 0.00 in/hr0.0 mm/hr 0.00 in0.0 mm
01:37 PM 85.1°F29.5°C 28.8°F-1.8°C 13% 21.0 mph SW33.8 kmh SW 21.9 mph35.2 kmh -338605.1 mb 0.00 in0.0 mm 0.00 in/hr0.0 mm/hr 0.00 in0.0 mm
01:42 PM 84.6°F29.2°C 28.4°F-2.0°C 13% 21.9 mph SW35.2 kmh SW 25.1 mph40.4 kmh -338605.1 mb 0.00 in0.0 mm 0.00 in/hr0.0 mm/hr 0.00 in0.0 mm
01:47 PM 84.4°F29.1°C 31.6°F-0.2°C 15% 23.0 mph SW37.0 kmh SW 25.1 mph40.4 kmh -338605.1 mb 0.00 in0.0 mm 0.00 in/hr0.0 mm/hr 0.00 in0.0 mm
01:52 PM 84.7°F29.3°C 32.0°F0.0°C 15% 21.0 mph WSW33.8 kmh WSW 21.0 mph33.8 kmh -338605.1 mb 0.00 in0.0 mm 0.00 in/hr0.0 mm/hr 0.00 in0.0 mm
01:57 PM 84.4°F29.1°C 31.6°F-0.2°C 15% 21.0 mph WSW33.8 kmh WSW 25.1 mph40.4 kmh -338605.1 mb 0.00 in0.0 mm 0.00 in/hr0.0 mm/hr 0.00 in0.0 mm
02:02 PM 84.6°F29.2°C 33.4°F0.8°C 16% 19.9 mph SW32.0 kmh SW 25.1 mph40.4 kmh -338605.1 mb 0.00 in0.0 mm 0.00 in/hr0.0 mm/hr 0.00 in0.0 mm
02:07 PM 84.7°F29.3°C 32.0°F0.0°C 15% 19.0 mph WSW30.6 kmh WSW 23.0 mph37.0 kmh -338605.1 mb 0.00 in0.0 mm 0.00 in/hr0.0 mm/hr 0.00 in0.0 mm
02:12 PM 84.4°F29.1°C 31.6°F-0.2°C 15% 19.0 mph SW30.6 kmh SW 16.1 mph25.9 kmh -338605.1 mb 0.00 in0.0 mm 0.00 in/hr0.0 mm/hr 0.00 in0.0 mm
02:17 PM 84.6°F29.2°C 31.8°F-0.1°C 15% 19.0 mph WSW30.6 kmh WSW 23.0 mph37.0 kmh -338605.1 mb 0.00 in0.0 mm 0.00 in/hr0.0 mm/hr 0.00 in0.0 mm
02:22 PM 84.6°F29.2°C 31.8°F-0.1°C 15% 19.9 mph SW32.0 kmh SW 21.9 mph35.2 kmh -338605.1 mb 0.00 in0.0 mm 0.00 in/hr0.0 mm/hr 0.00 in0.0 mm
02:27 PM 84.6°F29.2°C 33.4°F0.8°C 16% 21.0 mph WSW33.8 kmh WSW 16.1 mph25.9 kmh -338605.1 mb 0.00 in0.0 mm 0.00 in/hr0.0 mm/hr 0.00 in0.0 mm
02:32 PM 83.8°F28.8°C 32.9°F0.5°C 16% 21.0 mph SW33.8 kmh SW 17.9 mph28.8 kmh -338605.1 mb 0.00 in0.0 mm 0.00 in/hr0.0 mm/hr 0.00 in0.0 mm
02:37 PM 84.0°F28.9°C 31.5°F-0.3°C 15% 21.0 mph WSW33.8 kmh WSW 17.0 mph27.4 kmh -338605.1 mb 0.00 in0.0 mm 0.00 in/hr0.0 mm/hr 0.00 in0.0 mm
02:42 PM 84.4°F29.1°C 33.3°F0.7°C 16% 19.0 mph SW30.6 kmh SW 17.0 mph27.4 kmh -338605.1 mb 0.00 in0.0 mm 0.00 in/hr0.0 mm/hr 0.00 in0.0 mm
02:47 PM 84.2°F29.0°C 33.1°F0.6°C 16% 17.0 mph SW27.4 kmh SW 32.0 mph51.5 kmh -338605.1 mb 0.00 in0.0 mm 0.00 in/hr0.0 mm/hr 0.00 in0.0 mm
02:52 PM 83.8°F28.8°C 32.9°F0.5°C 16% 17.9 mph WSW28.8 kmh WSW 13.0 mph20.9 kmh -338605.1 mb 0.00 in0.0 mm 0.00 in/hr0.0 mm/hr 0.00 in0.0 mm
02:57 PM 83.8°F28.8°C 32.9°F0.5°C 16% 19.0 mph WSW30.6 kmh WSW 23.9 mph38.5 kmh -338605.1 mb 0.00 in0.0 mm 0.00 in/hr0.0 mm/hr 0.00 in0.0 mm
03:02 PM 83.8°F28.8°C 32.9°F0.5°C 16% 19.0 mph WSW30.6 kmh WSW 19.9 mph32.0 kmh -338605.1 mb 0.00 in0.0 mm 0.00 in/hr0.0 mm/hr 0.00 in0.0 mm
03:17 PM 83.7°F28.7°C 32.7°F0.4°C 16% 23.0 mph WSW37.0 kmh WSW 19.0 mph30.6 kmh -338605.1 mb 0.00 in0.0 mm 0.00 in/hr0.0 mm/hr 0.00 in0.0 mm
03:22 PM 84.0°F28.9°C 31.5°F-0.3°C 15% 23.0 mph WSW37.0 kmh WSW 25.1 mph40.4 kmh -338605.1 mb 0.00 in0.0 mm 0.00 in/hr0.0 mm/hr 0.00 in0.0 mm
03:27 PM 83.5°F28.6°C 32.5°F0.3°C 16% 25.9 mph WSW41.7 kmh WSW 23.9 mph38.5 kmh -338605.1 mb 0.00 in0.0 mm 0.00 in/hr0.0 mm/hr 0.00 in0.0 mm
03:32 PM 83.1°F28.4°C 32.4°F0.2°C 16% 27.1 mph WSW43.6 kmh WSW 30.0 mph48.3 kmh -338605.1 mb 0.00 in0.0 mm 0.00 in/hr0.0 mm/hr 0.00 in0.0 mm
03:37 PM 83.3°F28.5°C 32.4°F0.2°C 16% 27.1 mph WSW43.6 kmh WSW 36.9 mph59.4 kmh -338605.1 mb 0.00 in0.0 mm 0.00 in/hr0.0 mm/hr 0.00 in0.0 mm
03:42 PM 83.5°F28.6°C 32.5°F0.3°C 16% 25.9 mph WSW41.7 kmh WSW 40.0 mph64.4 kmh -338605.1 mb 0.00 in0.0 mm 0.00 in/hr0.0 mm/hr 0.00 in0.0 mm
03:47 PM 82.8°F28.2°C 33.4°F0.8°C 17% 27.1 mph W43.6 kmh W 30.0 mph48.3 kmh -338605.1 mb 0.00 in0.0 mm 0.00 in/hr0.0 mm/hr 0.00 in0.0 mm
03:52 PM 82.8°F28.2°C 33.4°F0.8°C 17% 28.0 mph WSW45.1 kmh WSW 28.0 mph45.1 kmh -338605.1 mb 0.00 in0.0 mm 0.00 in/hr0.0 mm/hr 0.00 in0.0 mm
03:57 PM 82.8°F28.2°C 33.4°F0.8°C 17% 27.1 mph WSW43.6 kmh WSW 21.0 mph33.8 kmh -338605.1 mb 0.00 in0.0 mm 0.00 in/hr0.0 mm/hr 0.00 in0.0 mm
04:02 PM 82.4°F28.0°C 34.7°F1.5°C 18% 27.1 mph WSW43.6 kmh WSW 28.0 mph45.1 kmh -338605.1 mb 0.00 in0.0 mm 0.00 in/hr0.0 mm/hr 0.00 in0.0 mm
04:07 PM 81.9°F27.7°C 34.2°F1.2°C 18% 28.0 mph WSW45.1 kmh WSW 36.0 mph57.9 kmh -338605.1 mb 0.00 in0.0 mm 0.00 in/hr0.0 mm/hr 0.00 in0.0 mm
04:12 PM 81.3°F27.4°C 35.1°F1.7°C 19% 31.1 mph SW50.1 kmh SW 32.0 mph51.5 kmh -338605.1 mb 0.00 in0.0 mm 0.00 in/hr0.0 mm/hr 0.00 in0.0 mm
04:17 PM 81.1°F27.3°C 33.6°F0.9°C 18% 34.0 mph WSW54.7 kmh WSW 36.0 mph57.9 kmh -338605.1 mb 0.00 in0.0 mm 0.00 in/hr0.0 mm/hr 0.00 in0.0 mm
04:22 PM 80.8°F27.1°C 34.7°F1.5°C 19% 34.9 mph WSW56.2 kmh WSW 34.9 mph56.2 kmh -338605.1 mb 0.00 in0.0 mm 0.00 in/hr0.0 mm/hr 0.00 in0.0 mm
04:27 PM 80.8°F27.1°C 34.7°F1.5°C 19% 34.0 mph SW54.7 kmh SW 28.0 mph45.1 kmh -338605.1 mb 0.00 in0.0 mm 0.00 in/hr0.0 mm/hr 0.00 in0.0 mm
04:32 PM 80.4°F26.9°C 33.1°F0.6°C 18% 32.0 mph SW51.5 kmh SW 27.1 mph43.6 kmh -338605.1 mb 0.00 in0.0 mm 0.00 in/hr0.0 mm/hr 0.00 in0.0 mm
04:37 PM 80.1°F26.7°C 32.7°F0.4°C 18% 30.0 mph WSW48.3 kmh WSW 15.0 mph24.1 kmh -338605.1 mb 0.00 in0.0 mm 0.00 in/hr0.0 mm/hr 0.00 in0.0 mm
04:42 PM 80.2°F26.8°C 34.2°F1.2°C 19% 28.0 mph SW45.1 kmh SW 34.0 mph54.7 kmh -338605.1 mb 0.00 in0.0 mm 0.00 in/hr0.0 mm/hr 0.00 in0.0 mm
04:47 PM 79.9°F26.6°C 32.5°F0.3°C 18% 27.1 mph WSW43.6 kmh WSW 25.1 mph40.4 kmh -338605.1 mb 0.00 in0.0 mm 0.00 in/hr0.0 mm/hr 0.00 in0.0 mm
04:52 PM 79.5°F26.4°C 34.9°F1.6°C 20% 25.9 mph SW41.7 kmh SW 25.1 mph40.4 kmh -338605.1 mb 0.00 in0.0 mm 0.00 in/hr0.0 mm/hr 0.00 in0.0 mm
04:57 PM 79.2°F26.2°C 33.4°F0.8°C 19% 27.1 mph WSW43.6 kmh WSW 32.0 mph51.5 kmh -338605.1 mb 0.00 in0.0 mm 0.00 in/hr0.0 mm/hr 0.00 in0.0 mm
05:02 PM 79.3°F26.3°C 33.4°F0.8°C 19% 25.9 mph WSW41.7 kmh WSW 29.1 mph46.8 kmh -338605.1 mb 0.00 in0.0 mm 0.00 in/hr0.0 mm/hr 0.00 in0.0 mm
05:07 PM 79.0°F26.1°C 33.3°F0.7°C 19% 25.1 mph SW40.4 kmh SW 32.0 mph51.5 kmh -338605.1 mb 0.00 in0.0 mm 0.00 in/hr0.0 mm/hr 0.00 in0.0 mm
05:12 PM 78.4°F25.8°C 34.0°F1.1°C 20% 27.1 mph WSW43.6 kmh WSW 34.0 mph54.7 kmh -338605.1 mb 0.00 in0.0 mm 0.00 in/hr0.0 mm/hr 0.00 in0.0 mm
05:17 PM 78.4°F25.8°C 32.7°F0.4°C 19% 25.9 mph SW41.7 kmh SW 17.9 mph28.8 kmh -338605.1 mb 0.00 in0.0 mm 0.00 in/hr0.0 mm/hr 0.00 in0.0 mm
05:22 PM 78.4°F25.8°C 34.0°F1.1°C 20% 23.0 mph SW37.0 kmh SW 17.9 mph28.8 kmh -338605.1 mb 0.00 in0.0 mm 0.00 in/hr0.0 mm/hr 0.00 in0.0 mm
05:27 PM 78.4°F25.8°C 32.7°F0.4°C 19% 21.9 mph WSW35.2 kmh WSW 36.0 mph57.9 kmh -338605.1 mb 0.00 in0.0 mm 0.00 in/hr0.0 mm/hr 0.00 in0.0 mm
05:32 PM 77.7°F25.4°C 33.4°F0.8°C 20% 23.9 mph SW38.5 kmh SW 21.9 mph35.2 kmh -338605.1 mb 0.00 in0.0 mm 0.00 in/hr0.0 mm/hr 0.00 in0.0 mm
05:37 PM 77.5°F25.3°C 33.3°F0.7°C 20% 25.1 mph WSW40.4 kmh WSW 25.9 mph41.7 kmh -338605.1 mb 0.00 in0.0 mm 0.00 in/hr0.0 mm/hr 0.00 in0.0 mm
05:42 PM 77.4°F25.2°C 33.1°F0.6°C 20% 25.1 mph SW40.4 kmh SW 15.0 mph24.1 kmh -338605.1 mb 0.00 in0.0 mm 0.00 in/hr0.0 mm/hr 0.00 in0.0 mm
05:47 PM 77.2°F25.1°C 33.1°F0.6°C 20% 25.1 mph SW40.4 kmh SW 21.9 mph35.2 kmh -338605.1 mb 0.00 in0.0 mm 0.00 in/hr0.0 mm/hr 0.00 in0.0 mm
05:52 PM 76.6°F24.8°C 33.8°F1.0°C 21% 25.1 mph WSW40.4 kmh WSW 23.9 mph38.5 kmh -338605.1 mb 0.00 in0.0 mm 0.00 in/hr0.0 mm/hr 0.00 in0.0 mm
05:57 PM 76.5°F24.7°C 32.4°F0.2°C 20% 25.9 mph SW41.7 kmh SW 30.0 mph48.3 kmh -338605.1 mb 0.00 in0.0 mm 0.00 in/hr0.0 mm/hr 0.00 in0.0 mm
06:02 PM 76.5°F24.7°C 32.4°F0.2°C 20% 23.9 mph WSW38.5 kmh WSW 15.0 mph24.1 kmh -338605.1 mb 0.00 in0.0 mm 0.00 in/hr0.0 mm/hr 0.00 in0.0 mm
06:07 PM 76.3°F24.6°C 33.4°F0.8°C 21% 23.9 mph SW38.5 kmh SW 27.1 mph43.6 kmh -338605.1 mb 0.00 in0.0 mm 0.00 in/hr0.0 mm/hr 0.00 in0.0 mm
06:12 PM 76.1°F24.5°C 32.2°F0.1°C 20% 25.1 mph SW40.4 kmh SW 23.0 mph37.0 kmh -338605.1 mb 0.00 in0.0 mm 0.00 in/hr0.0 mm/hr 0.00 in0.0 mm
06:17 PM 75.7°F24.3°C 33.1°F0.6°C 21% 23.0 mph SW37.0 kmh SW 25.9 mph41.7 kmh -338605.1 mb 0.00 in0.0 mm 0.00 in/hr0.0 mm/hr 0.00 in0.0 mm
06:22 PM 75.6°F24.2°C 32.9°F0.5°C 21% 21.9 mph WSW35.2 kmh WSW 31.1 mph50.1 kmh -338605.1 mb 0.00 in0.0 mm 0.00 in/hr0.0 mm/hr 0.00 in0.0 mm
06:27 PM 75.0°F23.9°C 32.4°F0.2°C 21% 23.9 mph SW38.5 kmh SW 19.9 mph32.0 kmh -338605.1 mb 0.00 in0.0 mm 0.00 in/hr0.0 mm/hr 0.00 in0.0 mm
06:32 PM 74.8°F23.8°C 33.4°F0.8°C 22% 23.9 mph SW38.5 kmh SW 32.0 mph51.5 kmh -338605.1 mb 0.00 in0.0 mm 0.00 in/hr0.0 mm/hr 0.00 in0.0 mm
06:37 PM 74.7°F23.7°C 33.3°F0.7°C 22% 23.9 mph SW38.5 kmh SW 28.0 mph45.1 kmh -338605.1 mb 0.00 in0.0 mm 0.00 in/hr0.0 mm/hr 0.00 in0.0 mm
06:42 PM 74.5°F23.6°C 33.1°F0.6°C 22% 23.9 mph WSW38.5 kmh WSW 21.9 mph35.2 kmh -338605.1 mb 0.00 in0.0 mm 0.00 in/hr0.0 mm/hr 0.00 in0.0 mm
06:47 PM 73.9°F23.3°C 33.8°F1.0°C 23% 23.9 mph SW38.5 kmh SW 12.1 mph19.5 kmh -338605.1 mb 0.00 in0.0 mm 0.00 in/hr0.0 mm/hr 0.00 in0.0 mm
06:52 PM 73.8°F23.2°C 33.6°F0.9°C 23% 23.0 mph SW37.0 kmh SW 28.0 mph45.1 kmh -338605.1 mb 0.00 in0.0 mm 0.00 in/hr0.0 mm/hr 0.00 in0.0 mm
06:57 PM 73.4°F23.0°C 34.3°F1.3°C 24% 21.9 mph SW35.2 kmh SW 21.9 mph35.2 kmh -338605.1 mb 0.00 in0.0 mm 0.00 in/hr0.0 mm/hr 0.00 in0.0 mm
07:02 PM 73.2°F22.9°C 34.3°F1.3°C 24% 23.9 mph SW38.5 kmh SW 27.1 mph43.6 kmh -338605.1 mb 0.00 in0.0 mm 0.00 in/hr0.0 mm/hr 0.00 in0.0 mm
07:07 PM 73.0°F22.8°C 34.2°F1.2°C 24% 23.0 mph SW37.0 kmh SW 11.0 mph17.7 kmh -338605.1 mb 0.00 in0.0 mm 0.00 in/hr0.0 mm/hr 0.00 in0.0 mm
07:12 PM 72.7°F22.6°C 33.8°F1.0°C 24% 21.9 mph SW35.2 kmh SW 15.0 mph24.1 kmh -338605.1 mb 0.00 in0.0 mm 0.00 in/hr0.0 mm/hr 0.00 in0.0 mm
07:17 PM 72.1°F22.3°C 33.4°F0.8°C 24% 23.0 mph SW37.0 kmh SW 23.0 mph37.0 kmh -338605.1 mb 0.00 in0.0 mm 0.00 in/hr0.0 mm/hr 0.00 in0.0 mm
07:22 PM 72.0°F22.2°C 34.2°F1.2°C 25% 23.0 mph SSW37.0 kmh SSW 17.0 mph27.4 kmh -338605.1 mb 0.00 in0.0 mm 0.00 in/hr0.0 mm/hr 0.00 in0.0 mm
07:27 PM 71.4°F21.9°C 33.8°F1.0°C 25% 21.0 mph WSW33.8 kmh WSW 19.0 mph30.6 kmh -338605.1 mb 0.00 in0.0 mm 0.00 in/hr0.0 mm/hr 0.00 in0.0 mm
07:32 PM 71.2°F21.8°C 33.6°F0.9°C 25% 21.9 mph SW35.2 kmh SW 13.0 mph20.9 kmh -338605.1 mb 0.00 in0.0 mm 0.00 in/hr0.0 mm/hr 0.00 in0.0 mm
07:37 PM 71.1°F21.7°C 33.4°F0.8°C 25% 23.0 mph SW37.0 kmh SW 19.0 mph30.6 kmh -338605.1 mb 0.00 in0.0 mm 0.00 in/hr0.0 mm/hr 0.00 in0.0 mm
07:42 PM 71.1°F21.7°C 33.4°F0.8°C 25% 21.9 mph SW35.2 kmh SW 27.1 mph43.6 kmh -338605.1 mb 0.00 in0.0 mm 0.00 in/hr0.0 mm/hr 0.00 in0.0 mm
07:47 PM 70.5°F21.4°C 34.0°F1.1°C 26% 21.9 mph SW35.2 kmh SW 23.0 mph37.0 kmh -338605.1 mb 0.00 in0.0 mm 0.00 in/hr0.0 mm/hr 0.00 in0.0 mm
07:52 PM 70.2°F21.2°C 33.6°F0.9°C 26% 21.0 mph SW33.8 kmh SW 21.9 mph35.2 kmh -338605.1 mb 0.00 in0.0 mm 0.00 in/hr0.0 mm/hr 0.00 in0.0 mm
07:57 PM 70.0°F21.1°C 33.4°F0.8°C 26% 19.0 mph SSW30.6 kmh SSW 21.9 mph35.2 kmh -338605.1 mb 0.00 in0.0 mm 0.00 in/hr0.0 mm/hr 0.00 in0.0 mm
08:02 PM 69.6°F20.9°C 33.3°F0.7°C 26% 17.9 mph SW28.8 kmh SW 17.9 mph28.8 kmh -338605.1 mb 0.00 in0.0 mm 0.00 in/hr0.0 mm/hr 0.00 in0.0 mm
08:07 PM 69.4°F20.8°C 33.1°F0.6°C 26% 17.9 mph S28.8 kmh S 21.0 mph33.8 kmh -338605.1 mb 0.00 in0.0 mm 0.00 in/hr0.0 mm/hr 0.00 in0.0 mm
08:12 PM 69.4°F20.8°C 33.1°F0.6°C 26% 17.9 mph WSW28.8 kmh WSW 10.1 mph16.3 kmh -338605.1 mb 0.00 in0.0 mm 0.00 in/hr0.0 mm/hr 0.00 in0.0 mm
08:17 PM 69.1°F20.6°C 33.6°F0.9°C 27% 17.0 mph SW27.4 kmh SW 19.0 mph30.6 kmh -338605.1 mb 0.00 in0.0 mm 0.00 in/hr0.0 mm/hr 0.00 in0.0 mm
08:22 PM 68.9°F20.5°C 34.5°F1.4°C 28% 17.0 mph SW27.4 kmh SW 19.0 mph30.6 kmh -338605.1 mb 0.00 in0.0 mm 0.00 in/hr0.0 mm/hr 0.00 in0.0 mm
08:27 PM 68.7°F20.4°C 34.3°F1.3°C 28% 19.9 mph SW32.0 kmh SW 19.0 mph30.6 kmh -338605.1 mb 0.00 in0.0 mm 0.00 in/hr0.0 mm/hr 0.00 in0.0 mm
08:32 PM 68.5°F20.3°C 34.2°F1.2°C 28% 21.0 mph SW33.8 kmh SW 12.1 mph19.5 kmh -338605.1 mb 0.00 in0.0 mm 0.00 in/hr0.0 mm/hr 0.00 in0.0 mm
08:37 PM 68.5°F20.3°C 35.1°F1.7°C 29% 19.0 mph SSW30.6 kmh SSW 17.0 mph27.4 kmh -338605.1 mb 0.00 in0.0 mm 0.00 in/hr0.0 mm/hr 0.00 in0.0 mm
08:42 PM 68.2°F20.1°C 34.7°F1.5°C 29% 17.9 mph SW28.8 kmh SW 16.1 mph25.9 kmh -338605.1 mb 0.00 in0.0 mm 0.00 in/hr0.0 mm/hr 0.00 in0.0 mm
08:47 PM 67.8°F19.9°C 35.2°F1.8°C 30% 16.1 mph SW25.9 kmh SW 14.1 mph22.7 kmh -338605.1 mb 0.00 in0.0 mm 0.00 in/hr0.0 mm/hr 0.00 in0.0 mm
08:52 PM 67.6°F19.8°C 35.1°F1.7°C 30% 17.0 mph WSW27.4 kmh WSW 21.9 mph35.2 kmh -338605.1 mb 0.00 in0.0 mm 0.00 in/hr0.0 mm/hr 0.00 in0.0 mm
08:57 PM 67.6°F19.8°C 35.1°F1.7°C 30% 17.9 mph SW28.8 kmh SW 11.0 mph17.7 kmh -338605.1 mb 0.00 in0.0 mm 0.00 in/hr0.0 mm/hr 0.00 in0.0 mm
09:02 PM 67.5°F19.7°C 34.9°F1.6°C 30% 17.0 mph SW27.4 kmh SW 17.9 mph28.8 kmh -338605.1 mb 0.00 in0.0 mm 0.00 in/hr0.0 mm/hr 0.00 in0.0 mm
09:07 PM 67.5°F19.7°C 34.9°F1.6°C 30% 16.1 mph SW25.9 kmh SW 10.1 mph16.3 kmh -338605.1 mb 0.00 in0.0 mm 0.00 in/hr0.0 mm/hr 0.00 in0.0 mm
09:12 PM 67.5°F19.7°C 34.9°F1.6°C 30% 16.1 mph SW25.9 kmh SW 27.1 mph43.6 kmh -338605.1 mb 0.00 in0.0 mm 0.00 in/hr0.0 mm/hr 0.00 in0.0 mm
09:17 PM 67.3°F19.6°C 35.6°F2.0°C 31% 17.9 mph SW28.8 kmh SW 23.9 mph38.5 kmh -338605.1 mb 0.00 in0.0 mm 0.00 in/hr0.0 mm/hr 0.00 in0.0 mm
09:22 PM 67.3°F19.6°C 35.6°F2.0°C 31% 19.0 mph SW30.6 kmh SW 16.1 mph25.9 kmh -338605.1 mb 0.00 in0.0 mm 0.00 in/hr0.0 mm/hr 0.00 in0.0 mm
09:27 PM 66.9°F19.4°C 35.2°F1.8°C 31% 17.9 mph SW28.8 kmh SW 15.0 mph24.1 kmh -338605.1 mb 0.00 in0.0 mm 0.00 in/hr0.0 mm/hr 0.00 in0.0 mm
09:32 PM 66.9°F19.4°C 35.2°F1.8°C 31% 17.9 mph W28.8 kmh W 14.1 mph22.7 kmh -338605.1 mb 0.00 in0.0 mm 0.00 in/hr0.0 mm/hr 0.00 in0.0 mm
09:37 PM 66.9°F19.4°C 36.1°F2.3°C 32% 19.9 mph WSW32.0 kmh WSW 17.0 mph27.4 kmh -338605.1 mb 0.00 in0.0 mm 0.00 in/hr0.0 mm/hr 0.00 in0.0 mm
09:42 PM 66.9°F19.4°C 35.2°F1.8°C 31% 19.9 mph SW32.0 kmh SW 19.0 mph30.6 kmh -338605.1 mb 0.00 in0.0 mm 0.00 in/hr0.0 mm/hr 0.00 in0.0 mm
09:47 PM 66.7°F19.3°C 36.0°F2.2°C 32% 19.9 mph SW32.0 kmh SW 19.0 mph30.6 kmh -338605.1 mb 0.00 in0.0 mm 0.00 in/hr0.0 mm/hr 0.00 in0.0 mm
09:52 PM 66.7°F19.3°C 36.0°F2.2°C 32% 21.0 mph SSW33.8 kmh SSW 16.1 mph25.9 kmh -338605.1 mb 0.00 in0.0 mm 0.00 in/hr0.0 mm/hr 0.00 in0.0 mm
09:57 PM 66.6°F19.2°C 35.8°F2.1°C 32% 21.9 mph SW35.2 kmh SW 25.9 mph41.7 kmh -338605.1 mb 0.00 in0.0 mm 0.00 in/hr0.0 mm/hr 0.00 in0.0 mm
10:02 PM 66.6°F19.2°C 35.8°F2.1°C 32% 23.0 mph SW37.0 kmh SW 13.0 mph20.9 kmh -338605.1 mb 0.00 in0.0 mm 0.00 in/hr0.0 mm/hr 0.00 in0.0 mm
10:07 PM 66.6°F19.2°C 35.8°F2.1°C 32% 23.0 mph SW37.0 kmh SW 15.0 mph24.1 kmh -338605.1 mb 0.00 in0.0 mm 0.00 in/hr0.0 mm/hr 0.00 in0.0 mm
10:12 PM 66.4°F19.1°C 35.6°F2.0°C 32% 23.0 mph WSW37.0 kmh WSW 21.0 mph33.8 kmh -338605.1 mb 0.00 in0.0 mm 0.00 in/hr0.0 mm/hr 0.00 in0.0 mm
10:17 PM 66.0°F18.9°C 35.2°F1.8°C 32% 21.9 mph SW35.2 kmh SW 25.1 mph40.4 kmh -338605.1 mb 0.00 in0.0 mm 0.00 in/hr0.0 mm/hr 0.00 in0.0 mm
10:22 PM 66.0°F18.9°C 36.1°F2.3°C 33% 21.9 mph WSW35.2 kmh WSW 27.1 mph43.6 kmh -338605.1 mb 0.00 in0.0 mm 0.00 in/hr0.0 mm/hr 0.00 in0.0 mm
10:27 PM 65.8°F18.8°C 36.0°F2.2°C 33% 21.9 mph WSW35.2 kmh WSW 19.0 mph30.6 kmh -338605.1 mb 0.00 in0.0 mm 0.00 in/hr0.0 mm/hr 0.00 in0.0 mm
10:32 PM 65.7°F18.7°C 36.5°F2.5°C 34% 19.9 mph WSW32.0 kmh WSW 23.0 mph37.0 kmh -338605.1 mb 0.00 in0.0 mm 0.00 in/hr0.0 mm/hr 0.00 in0.0 mm
10:37 PM 65.5°F18.6°C 37.0°F2.8°C 35% 21.0 mph WSW33.8 kmh WSW 16.1 mph25.9 kmh -338605.1 mb 0.00 in0.0 mm 0.00 in/hr0.0 mm/hr 0.00 in0.0 mm
10:42 PM 65.3°F18.5°C 36.9°F2.7°C 35% 21.0 mph WSW33.8 kmh WSW 19.9 mph32.0 kmh -338605.1 mb 0.00 in0.0 mm 0.00 in/hr0.0 mm/hr 0.00 in0.0 mm
10:47 PM 65.1°F18.4°C 36.1°F2.3°C 34% 21.9 mph WSW35.2 kmh WSW 17.9 mph28.8 kmh -338605.1 mb 0.00 in0.0 mm 0.00 in/hr0.0 mm/hr 0.00 in0.0 mm
10:52 PM 65.1°F18.4°C 36.1°F2.3°C 34% 21.9 mph SW35.2 kmh SW 21.0 mph33.8 kmh -338605.1 mb 0.00 in0.0 mm 0.00 in/hr0.0 mm/hr 0.00 in0.0 mm
10:57 PM 64.9°F18.3°C 36.0°F2.2°C 34% 21.9 mph SW35.2 kmh SW 29.1 mph46.8 kmh -338605.1 mb 0.00 in0.0 mm 0.00 in/hr0.0 mm/hr 0.00 in0.0 mm
11:02 PM 64.9°F18.3°C 35.1°F1.7°C 33% 23.0 mph SW37.0 kmh SW 31.1 mph50.1 kmh -338605.1 mb 0.00 in0.0 mm 0.00 in/hr0.0 mm/hr 0.00 in0.0 mm
11:07 PM 64.9°F18.3°C 35.1°F1.7°C 33% 23.9 mph WSW38.5 kmh WSW 30.0 mph48.3 kmh -338605.1 mb 0.00 in0.0 mm 0.00 in/hr0.0 mm/hr 0.00 in0.0 mm
11:12 PM 64.9°F18.3°C 35.1°F1.7°C 33% 25.1 mph WSW40.4 kmh WSW 25.9 mph41.7 kmh -338605.1 mb 0.00 in0.0 mm 0.00 in/hr0.0 mm/hr 0.00 in0.0 mm
11:17 PM 64.8°F18.2°C 35.1°F1.7°C 33% 23.9 mph W38.5 kmh W 23.9 mph38.5 kmh -338605.1 mb 0.00 in0.0 mm 0.00 in/hr0.0 mm/hr 0.00 in0.0 mm
11:22 PM 64.6°F18.1°C 35.6°F2.0°C 34% 23.0 mph WSW37.0 kmh WSW 17.0 mph27.4 kmh -338605.1 mb 0.00 in0.0 mm 0.00 in/hr0.0 mm/hr 0.00 in0.0 mm
11:27 PM 64.2°F17.9°C 36.0°F2.2°C 35% 23.9 mph WSW38.5 kmh WSW 30.0 mph48.3 kmh -338605.1 mb 0.00 in0.0 mm 0.00 in/hr0.0 mm/hr 0.00 in0.0 mm
11:32 PM 64.2°F17.9°C 35.2°F1.8°C 34% 25.1 mph SW40.4 kmh SW 23.0 mph37.0 kmh -338605.1 mb 0.00 in0.0 mm 0.00 in/hr0.0 mm/hr 0.00 in0.0 mm
11:37 PM 64.2°F17.9°C 35.2°F1.8°C 34% 25.9 mph SW41.7 kmh SW 30.0 mph48.3 kmh -338605.1 mb 0.00 in0.0 mm 0.00 in/hr0.0 mm/hr 0.00 in0.0 mm
11:42 PM 64.2°F17.9°C 35.2°F1.8°C 34% 23.9 mph SW38.5 kmh SW 23.9 mph38.5 kmh -338605.1 mb 0.00 in0.0 mm 0.00 in/hr0.0 mm/hr 0.00 in0.0 mm
11:47 PM 64.0°F17.8°C 35.1°F1.7°C 34% 23.9 mph SW38.5 kmh SW 23.9 mph38.5 kmh -338605.1 mb 0.00 in0.0 mm 0.00 in/hr0.0 mm/hr 0.00 in0.0 mm
11:52 PM 63.9°F17.7°C 34.9°F1.6°C 34% 23.9 mph SW38.5 kmh SW 23.0 mph37.0 kmh -338605.1 mb 0.00 in0.0 mm 0.00 in/hr0.0 mm/hr 0.00 in0.0 mm
11:57 PM 63.9°F17.7°C 34.9°F1.6°C 34% 23.0 mph SW37.0 kmh SW 27.1 mph43.6 kmh -338605.1 mb 0.00 in0.0 mm 0.00 in/hr0.0 mm/hr 0.00 in0.0 mm